sensor_id;sensor_type;location;lat;lon;timestamp;P1;durP1;ratioP1;P2;durP2;ratioP2
13085;SDS011;6609;49.882;8.664;2024-02-21T00:01:35;14.30;;;6.03;;
13085;SDS011;6609;49.882;8.664;2024-02-21T00:04:02;19.13;;;5.50;;
13085;SDS011;6609;49.882;8.664;2024-02-21T00:06:29;11.17;;;5.73;;
13085;SDS011;6609;49.882;8.664;2024-02-21T00:08:57;15.60;;;5.67;;
13085;SDS011;6609;49.882;8.664;2024-02-21T00:11:25;13.10;;;6.20;;
13085;SDS011;6609;49.882;8.664;2024-02-21T00:13:52;11.73;;;6.40;;
13085;SDS011;6609;49.882;8.664;2024-02-21T00:16:18;16.87;;;5.63;;
13085;SDS011;6609;49.882;8.664;2024-02-21T00:18:45;15.33;;;7.03;;
13085;SDS011;6609;49.882;8.664;2024-02-21T00:21:12;16.20;;;5.97;;
13085;SDS011;6609;49.882;8.664;2024-02-21T00:23:42;16.07;;;6.53;;
13085;SDS011;6609;49.882;8.664;2024-02-21T00:26:10;15.17;;;6.97;;
13085;SDS011;6609;49.882;8.664;2024-02-21T00:28:38;13.90;;;5.63;;
13085;SDS011;6609;49.882;8.664;2024-02-21T00:31:05;18.53;;;7.13;;
13085;SDS011;6609;49.882;8.664;2024-02-21T00:33:32;19.30;;;7.57;;
13085;SDS011;6609;49.882;8.664;2024-02-21T00:35:59;18.03;;;6.93;;
13085;SDS011;6609;49.882;8.664;2024-02-21T00:38:26;14.30;;;6.90;;
13085;SDS011;6609;49.882;8.664;2024-02-21T00:40:53;13.43;;;6.63;;
13085;SDS011;6609;49.882;8.664;2024-02-21T00:43:19;17.70;;;6.73;;
13085;SDS011;6609;49.882;8.664;2024-02-21T00:45:50;13.20;;;6.17;;
13085;SDS011;6609;49.882;8.664;2024-02-21T00:48:17;16.17;;;6.00;;
13085;SDS011;6609;49.882;8.664;2024-02-21T00:50:44;14.00;;;6.33;;
13085;SDS011;6609;49.882;8.664;2024-02-21T00:53:11;15.43;;;5.73;;
13085;SDS011;6609;49.882;8.664;2024-02-21T00:55:38;14.83;;;6.47;;
13085;SDS011;6609;49.882;8.664;2024-02-21T00:58:05;13.90;;;6.80;;
13085;SDS011;6609;49.882;8.664;2024-02-21T01:00:32;18.17;;;6.40;;
13085;SDS011;6609;49.882;8.664;2024-02-21T01:03:02;15.37;;;6.63;;
13085;SDS011;6609;49.882;8.664;2024-02-21T01:05:33;14.53;;;5.80;;
13085;SDS011;6609;49.882;8.664;2024-02-21T01:08:00;15.30;;;6.03;;
13085;SDS011;6609;49.882;8.664;2024-02-21T01:10:27;15.47;;;6.80;;
13085;SDS011;6609;49.882;8.664;2024-02-21T01:12:55;13.47;;;6.27;;
13085;SDS011;6609;49.882;8.664;2024-02-21T01:15:21;13.53;;;6.67;;
13085;SDS011;6609;49.882;8.664;2024-02-21T01:17:48;15.50;;;6.80;;
13085;SDS011;6609;49.882;8.664;2024-02-21T01:20:21;13.20;;;6.30;;
13085;SDS011;6609;49.882;8.664;2024-02-21T01:22:47;12.37;;;6.27;;
13085;SDS011;6609;49.882;8.664;2024-02-21T01:25:15;15.27;;;6.73;;
13085;SDS011;6609;49.882;8.664;2024-02-21T01:27:42;18.97;;;7.23;;
13085;SDS011;6609;49.882;8.664;2024-02-21T01:30:09;12.13;;;5.87;;
13085;SDS011;6609;49.882;8.664;2024-02-21T01:32:36;13.10;;;5.83;;
13085;SDS011;6609;49.882;8.664;2024-02-21T01:35:04;23.20;;;7.87;;
13085;SDS011;6609;49.882;8.664;2024-02-21T01:37:32;17.57;;;7.43;;
13085;SDS011;6609;49.882;8.664;2024-02-21T01:40:00;16.67;;;6.57;;
13085;SDS011;6609;49.882;8.664;2024-02-21T01:42:28;15.87;;;6.13;;
13085;SDS011;6609;49.882;8.664;2024-02-21T01:44:54;13.53;;;6.10;;
13085;SDS011;6609;49.882;8.664;2024-02-21T01:47:21;15.40;;;6.63;;
13085;SDS011;6609;49.882;8.664;2024-02-21T01:49:49;15.27;;;6.67;;
13085;SDS011;6609;49.882;8.664;2024-02-21T01:52:16;16.03;;;6.87;;
13085;SDS011;6609;49.882;8.664;2024-02-21T01:54:45;14.10;;;6.30;;
13085;SDS011;6609;49.882;8.664;2024-02-21T01:57:13;17.63;;;7.43;;
13085;SDS011;6609;49.882;8.664;2024-02-21T01:59:40;16.57;;;6.47;;
13085;SDS011;6609;49.882;8.664;2024-02-21T02:02:07;13.37;;;6.70;;
13085;SDS011;6609;49.882;8.664;2024-02-21T02:04:34;16.77;;;6.63;;
13085;SDS011;6609;49.882;8.664;2024-02-21T02:07:02;14.77;;;6.30;;
13085;SDS011;6609;49.882;8.664;2024-02-21T02:09:33;18.17;;;7.10;;
13085;SDS011;6609;49.882;8.664;2024-02-21T02:12:01;17.20;;;6.70;;
13085;SDS011;6609;49.882;8.664;2024-02-21T02:14:28;16.47;;;6.87;;
13085;SDS011;6609;49.882;8.664;2024-02-21T02:16:55;16.63;;;6.90;;
13085;SDS011;6609;49.882;8.664;2024-02-21T02:19:22;15.53;;;6.27;;
13085;SDS011;6609;49.882;8.664;2024-02-21T02:21:49;20.13;;;7.27;;
13085;SDS011;6609;49.882;8.664;2024-02-21T02:24:23;17.40;;;7.57;;
13085;SDS011;6609;49.882;8.664;2024-02-21T02:26:51;13.03;;;6.20;;
13085;SDS011;6609;49.882;8.664;2024-02-21T02:29:18;14.63;;;5.97;;
13085;SDS011;6609;49.882;8.664;2024-02-21T02:31:44;17.50;;;6.73;;
13085;SDS011;6609;49.882;8.664;2024-02-21T02:34:11;15.23;;;6.47;;
13085;SDS011;6609;49.882;8.664;2024-02-21T02:36:38;13.07;;;6.00;;
13085;SDS011;6609;49.882;8.664;2024-02-21T02:39:05;13.67;;;5.87;;
13085;SDS011;6609;49.882;8.664;2024-02-21T02:41:35;17.70;;;6.47;;
13085;SDS011;6609;49.882;8.664;2024-02-21T02:44:02;17.17;;;5.80;;
13085;SDS011;6609;49.882;8.664;2024-02-21T02:46:29;17.17;;;6.63;;
13085;SDS011;6609;49.882;8.664;2024-02-21T02:48:57;13.90;;;6.13;;
13085;SDS011;6609;49.882;8.664;2024-02-21T02:51:23;14.33;;;6.07;;
13085;SDS011;6609;49.882;8.664;2024-02-21T02:53:50;16.80;;;6.40;;
13085;SDS011;6609;49.882;8.664;2024-02-21T02:56:17;17.80;;;7.00;;
13085;SDS011;6609;49.882;8.664;2024-02-21T02:58:45;19.07;;;6.37;;
13085;SDS011;6609;49.882;8.664;2024-02-21T03:01:12;15.80;;;6.03;;
13085;SDS011;6609;49.882;8.664;2024-02-21T03:03:40;13.07;;;6.03;;
13085;SDS011;6609;49.882;8.664;2024-02-21T03:06:07;18.97;;;7.50;;
13085;SDS011;6609;49.882;8.664;2024-02-21T03:08:34;9.17;;;5.27;;
13085;SDS011;6609;49.882;8.664;2024-02-21T03:11:01;17.20;;;5.83;;
13085;SDS011;6609;49.882;8.664;2024-02-21T03:13:28;17.80;;;6.70;;
13085;SDS011;6609;49.882;8.664;2024-02-21T03:15:56;18.23;;;6.10;;
13085;SDS011;6609;49.882;8.664;2024-02-21T03:18:22;17.47;;;6.10;;
13085;SDS011;6609;49.882;8.664;2024-02-21T03:20:49;13.13;;;6.13;;
13085;SDS011;6609;49.882;8.664;2024-02-21T03:23:16;11.13;;;6.03;;
13085;SDS011;6609;49.882;8.664;2024-02-21T03:25:43;13.03;;;5.80;;
13085;SDS011;6609;49.882;8.664;2024-02-21T03:28:09;14.57;;;6.27;;
13085;SDS011;6609;49.882;8.664;2024-02-21T03:30:36;14.50;;;5.30;;
13085;SDS011;6609;49.882;8.664;2024-02-21T03:33:05;12.60;;;6.13;;
13085;SDS011;6609;49.882;8.664;2024-02-21T03:35:31;17.17;;;6.37;;
13085;SDS011;6609;49.882;8.664;2024-02-21T03:37:58;13.97;;;5.90;;
13085;SDS011;6609;49.882;8.664;2024-02-21T03:40:25;14.27;;;6.13;;
13085;SDS011;6609;49.882;8.664;2024-02-21T03:42:52;14.97;;;6.77;;
13085;SDS011;6609;49.882;8.664;2024-02-21T03:45:19;12.00;;;5.70;;
13085;SDS011;6609;49.882;8.664;2024-02-21T03:47:45;14.70;;;6.40;;
13085;SDS011;6609;49.882;8.664;2024-02-21T03:50:14;18.50;;;6.30;;
13085;SDS011;6609;49.882;8.664;2024-02-21T03:52:40;20.03;;;7.23;;
13085;SDS011;6609;49.882;8.664;2024-02-21T03:55:08;16.27;;;5.87;;
13085;SDS011;6609;49.882;8.664;2024-02-21T03:57:35;16.83;;;6.37;;
13085;SDS011;6609;49.882;8.664;2024-02-21T04:00:04;12.13;;;6.33;;
13085;SDS011;6609;49.882;8.664;2024-02-21T04:02:35;19.83;;;6.30;;
13085;SDS011;6609;49.882;8.664;2024-02-21T04:05:03;13.07;;;6.37;;
13085;SDS011;6609;49.882;8.664;2024-02-21T04:07:31;14.57;;;5.50;;
13085;SDS011;6609;49.882;8.664;2024-02-21T04:09:58;16.10;;;5.60;;
13085;SDS011;6609;49.882;8.664;2024-02-21T04:12:25;12.33;;;6.27;;
13085;SDS011;6609;49.882;8.664;2024-02-21T04:14:51;15.90;;;6.13;;
13085;SDS011;6609;49.882;8.664;2024-02-21T04:17:18;19.23;;;6.70;;
13085;SDS011;6609;49.882;8.664;2024-02-21T04:19:45;15.33;;;6.93;;
13085;SDS011;6609;49.882;8.664;2024-02-21T04:22:13;10.63;;;5.23;;
13085;SDS011;6609;49.882;8.664;2024-02-21T04:24:41;18.17;;;7.03;;
13085;SDS011;6609;49.882;8.664;2024-02-21T04:27:08;13.97;;;6.20;;
13085;SDS011;6609;49.882;8.664;2024-02-21T04:29:35;16.60;;;5.57;;
13085;SDS011;6609;49.882;8.664;2024-02-21T04:32:02;13.53;;;5.17;;
13085;SDS011;6609;49.882;8.664;2024-02-21T04:34:29;12.30;;;5.43;;
13085;SDS011;6609;49.882;8.664;2024-02-21T04:36:56;11.83;;;5.20;;
13085;SDS011;6609;49.882;8.664;2024-02-21T04:39:23;15.70;;;6.83;;
13085;SDS011;6609;49.882;8.664;2024-02-21T04:41:52;17.07;;;5.83;;
13085;SDS011;6609;49.882;8.664;2024-02-21T04:44:18;16.33;;;6.93;;
13085;SDS011;6609;49.882;8.664;2024-02-21T04:46:47;11.93;;;6.73;;
13085;SDS011;6609;49.882;8.664;2024-02-21T04:49:14;13.87;;;5.43;;
13085;SDS011;6609;49.882;8.664;2024-02-21T04:51:41;17.47;;;6.40;;
13085;SDS011;6609;49.882;8.664;2024-02-21T04:54:08;13.67;;;5.13;;
13085;SDS011;6609;49.882;8.664;2024-02-21T04:56:35;11.10;;;5.37;;
13085;SDS011;6609;49.882;8.664;2024-02-21T04:59:03;17.47;;;5.10;;
13085;SDS011;6609;49.882;8.664;2024-02-21T05:01:30;14.47;;;6.93;;
13085;SDS011;6609;49.882;8.664;2024-02-21T05:03:57;13.17;;;6.00;;
13085;SDS011;6609;49.882;8.664;2024-02-21T05:06:24;19.63;;;5.77;;
13085;SDS011;6609;49.882;8.664;2024-02-21T05:08:50;17.17;;;6.63;;
13085;SDS011;6609;49.882;8.664;2024-02-21T05:11:17;11.73;;;5.33;;
13085;SDS011;6609;49.882;8.664;2024-02-21T05:13:44;16.60;;;6.77;;
13085;SDS011;6609;49.882;8.664;2024-02-21T05:16:13;9.77;;;5.03;;
13085;SDS011;6609;49.882;8.664;2024-02-21T05:18:40;12.83;;;5.87;;
13085;SDS011;6609;49.882;8.664;2024-02-21T05:21:07;15.00;;;5.40;;
13085;SDS011;6609;49.882;8.664;2024-02-21T05:23:34;14.20;;;5.70;;
13085;SDS011;6609;49.882;8.664;2024-02-21T05:26:01;16.17;;;6.47;;
13085;SDS011;6609;49.882;8.664;2024-02-21T05:28:29;19.03;;;7.00;;
13085;SDS011;6609;49.882;8.664;2024-02-21T05:30:55;11.50;;;5.93;;
13085;SDS011;6609;49.882;8.664;2024-02-21T05:33:24;13.77;;;6.20;;
13085;SDS011;6609;49.882;8.664;2024-02-21T05:35:51;13.17;;;6.67;;
13085;SDS011;6609;49.882;8.664;2024-02-21T05:38:18;14.73;;;7.00;;
13085;SDS011;6609;49.882;8.664;2024-02-21T05:40:45;12.00;;;5.13;;
13085;SDS011;6609;49.882;8.664;2024-02-21T05:43:12;16.63;;;6.03;;
13085;SDS011;6609;49.882;8.664;2024-02-21T05:45:39;10.90;;;5.60;;
13085;SDS011;6609;49.882;8.664;2024-02-21T05:48:07;12.20;;;6.17;;
13085;SDS011;6609;49.882;8.664;2024-02-21T05:50:35;16.13;;;5.67;;
13085;SDS011;6609;49.882;8.664;2024-02-21T05:53:02;13.20;;;5.43;;
13085;SDS011;6609;49.882;8.664;2024-02-21T05:55:29;12.97;;;5.43;;
13085;SDS011;6609;49.882;8.664;2024-02-21T05:57:56;13.00;;;5.53;;
13085;SDS011;6609;49.882;8.664;2024-02-21T06:00:23;16.63;;;5.80;;
13085;SDS011;6609;49.882;8.664;2024-02-21T06:02:50;12.03;;;5.43;;
13085;SDS011;6609;49.882;8.664;2024-02-21T06:05:17;12.03;;;5.03;;
13085;SDS011;6609;49.882;8.664;2024-02-21T06:07:45;15.73;;;5.83;;
13085;SDS011;6609;49.882;8.664;2024-02-21T06:10:12;10.00;;;5.00;;
13085;SDS011;6609;49.882;8.664;2024-02-21T06:12:39;11.20;;;4.67;;
13085;SDS011;6609;49.882;8.664;2024-02-21T06:15:06;17.67;;;6.07;;
13085;SDS011;6609;49.882;8.664;2024-02-21T06:17:33;12.50;;;4.63;;
13085;SDS011;6609;49.882;8.664;2024-02-21T06:20:01;9.53;;;4.43;;
13085;SDS011;6609;49.882;8.664;2024-02-21T06:22:28;13.13;;;5.03;;
13085;SDS011;6609;49.882;8.664;2024-02-21T06:24:56;13.10;;;4.43;;
13085;SDS011;6609;49.882;8.664;2024-02-21T06:27:23;12.43;;;4.40;;
13085;SDS011;6609;49.882;8.664;2024-02-21T06:29:50;12.97;;;5.13;;
13085;SDS011;6609;49.882;8.664;2024-02-21T06:32:17;12.93;;;5.53;;
13085;SDS011;6609;49.882;8.664;2024-02-21T06:34:44;11.30;;;5.27;;
13085;SDS011;6609;49.882;8.664;2024-02-21T06:37:11;9.50;;;4.87;;
13085;SDS011;6609;49.882;8.664;2024-02-21T06:39:37;16.60;;;6.23;;
13085;SDS011;6609;49.882;8.664;2024-02-21T06:42:07;10.73;;;5.23;;
13085;SDS011;6609;49.882;8.664;2024-02-21T06:44:34;14.43;;;6.40;;
13085;SDS011;6609;49.882;8.664;2024-02-21T06:47:05;15.10;;;5.37;;
13085;SDS011;6609;49.882;8.664;2024-02-21T06:49:32;14.20;;;5.73;;
13085;SDS011;6609;49.882;8.664;2024-02-21T06:51:59;15.70;;;5.90;;
13085;SDS011;6609;49.882;8.664;2024-02-21T06:54:26;11.67;;;5.30;;
13085;SDS011;6609;49.882;8.664;2024-02-21T06:56:53;11.17;;;6.03;;
13085;SDS011;6609;49.882;8.664;2024-02-21T06:59:21;12.67;;;7.07;;
13085;SDS011;6609;49.882;8.664;2024-02-21T07:01:49;12.13;;;6.83;;
13085;SDS011;6609;49.882;8.664;2024-02-21T07:04:20;15.10;;;5.37;;
13085;SDS011;6609;49.882;8.664;2024-02-21T07:06:47;15.00;;;5.63;;
13085;SDS011;6609;49.882;8.664;2024-02-21T07:09:14;14.33;;;5.00;;
13085;SDS011;6609;49.882;8.664;2024-02-21T07:11:41;15.83;;;6.13;;
13085;SDS011;6609;49.882;8.664;2024-02-21T07:14:08;12.07;;;6.17;;
13085;SDS011;6609;49.882;8.664;2024-02-21T07:16:36;13.73;;;5.07;;
13085;SDS011;6609;49.882;8.664;2024-02-21T07:19:03;11.37;;;5.60;;
13085;SDS011;6609;49.882;8.664;2024-02-21T07:21:31;19.73;;;6.10;;
13085;SDS011;6609;49.882;8.664;2024-02-21T07:23:58;11.90;;;6.07;;
13085;SDS011;6609;49.882;8.664;2024-02-21T07:26:25;14.13;;;6.70;;
13085;SDS011;6609;49.882;8.664;2024-02-21T07:28:52;16.53;;;5.80;;
13085;SDS011;6609;49.882;8.664;2024-02-21T07:31:19;13.47;;;5.50;;
13085;SDS011;6609;49.882;8.664;2024-02-21T07:33:47;12.97;;;5.37;;
13085;SDS011;6609;49.882;8.664;2024-02-21T07:36:14;18.10;;;5.90;;
13085;SDS011;6609;49.882;8.664;2024-02-21T07:38:42;12.73;;;5.80;;
13085;SDS011;6609;49.882;8.664;2024-02-21T07:41:09;15.37;;;5.30;;
13085;SDS011;6609;49.882;8.664;2024-02-21T07:43:36;8.50;;;5.23;;
13085;SDS011;6609;49.882;8.664;2024-02-21T07:46:03;14.73;;;5.37;;
13085;SDS011;6609;49.882;8.664;2024-02-21T07:48:30;11.70;;;4.97;;
13085;SDS011;6609;49.882;8.664;2024-02-21T07:50:58;13.60;;;5.23;;
13085;SDS011;6609;49.882;8.664;2024-02-21T07:53:25;11.20;;;5.43;;
13085;SDS011;6609;49.882;8.664;2024-02-21T07:55:52;11.20;;;5.13;;
13085;SDS011;6609;49.882;8.664;2024-02-21T07:58:19;11.03;;;4.60;;
13085;SDS011;6609;49.882;8.664;2024-02-21T08:00:46;11.70;;;5.13;;
13085;SDS011;6609;49.882;8.664;2024-02-21T08:03:13;15.57;;;5.60;;
13085;SDS011;6609;49.882;8.664;2024-02-21T08:05:42;9.87;;;4.47;;
13085;SDS011;6609;49.882;8.664;2024-02-21T08:08:11;13.90;;;4.83;;
13085;SDS011;6609;49.882;8.664;2024-02-21T08:10:43;16.13;;;4.93;;
13085;SDS011;6609;49.882;8.664;2024-02-21T08:13:10;13.80;;;5.67;;
13085;SDS011;6609;49.882;8.664;2024-02-21T08:15:37;11.67;;;6.13;;
13085;SDS011;6609;49.882;8.664;2024-02-21T08:18:06;12.93;;;4.70;;
13085;SDS011;6609;49.882;8.664;2024-02-21T08:20:33;11.37;;;4.90;;
13085;SDS011;6609;49.882;8.664;2024-02-21T08:23:01;16.03;;;5.47;;
13085;SDS011;6609;49.882;8.664;2024-02-21T08:25:29;9.60;;;5.87;;
13085;SDS011;6609;49.882;8.664;2024-02-21T08:27:57;14.20;;;5.70;;
13085;SDS011;6609;49.882;8.664;2024-02-21T08:30:24;14.20;;;5.60;;
13085;SDS011;6609;49.882;8.664;2024-02-21T08:32:51;15.97;;;4.83;;
13085;SDS011;6609;49.882;8.664;2024-02-21T08:35:19;10.07;;;4.90;;
13085;SDS011;6609;49.882;8.664;2024-02-21T08:37:47;12.23;;;4.97;;
13085;SDS011;6609;49.882;8.664;2024-02-21T08:40:14;12.17;;;5.00;;
13085;SDS011;6609;49.882;8.664;2024-02-21T08:42:44;8.93;;;5.60;;
13085;SDS011;6609;49.882;8.664;2024-02-21T08:45:10;17.43;;;5.17;;
13085;SDS011;6609;49.882;8.664;2024-02-21T08:47:39;20.70;;;6.50;;
13085;SDS011;6609;49.882;8.664;2024-02-21T08:50:06;9.53;;;4.43;;
13085;SDS011;6609;49.882;8.664;2024-02-21T08:52:34;10.60;;;4.73;;
13085;SDS011;6609;49.882;8.664;2024-02-21T08:55:01;16.00;;;4.90;;
13085;SDS011;6609;49.882;8.664;2024-02-21T08:57:29;8.83;;;4.67;;
13085;SDS011;6609;49.882;8.664;2024-02-21T09:00:04;13.70;;;5.07;;
13085;SDS011;6609;49.882;8.664;2024-02-21T09:02:35;20.50;;;5.17;;
13085;SDS011;6609;49.882;8.664;2024-02-21T09:05:03;11.07;;;4.53;;
13085;SDS011;6609;49.882;8.664;2024-02-21T09:07:30;10.83;;;4.07;;
13085;SDS011;6609;49.882;8.664;2024-02-21T09:09:57;12.23;;;5.30;;
13085;SDS011;6609;49.882;8.664;2024-02-21T09:12:24;13.87;;;5.37;;
13085;SDS011;6609;49.882;8.664;2024-02-21T09:14:51;17.60;;;4.70;;
13085;SDS011;6609;49.882;8.664;2024-02-21T09:17:19;11.67;;;4.77;;
13085;SDS011;6609;49.882;8.664;2024-02-21T09:19:47;10.97;;;4.07;;
13085;SDS011;6609;49.882;8.664;2024-02-21T09:22:14;11.03;;;4.40;;
13085;SDS011;6609;49.882;8.664;2024-02-21T09:24:41;14.17;;;4.70;;
13085;SDS011;6609;49.882;8.664;2024-02-21T09:27:08;11.03;;;4.40;;
13085;SDS011;6609;49.882;8.664;2024-02-21T09:29:35;6.53;;;4.70;;
13085;SDS011;6609;49.882;8.664;2024-02-21T09:32:02;11.70;;;5.30;;
13085;SDS011;6609;49.882;8.664;2024-02-21T09:34:31;17.40;;;4.90;;
13085;SDS011;6609;49.882;8.664;2024-02-21T09:36:57;9.70;;;4.60;;
13085;SDS011;6609;49.882;8.664;2024-02-21T09:39:24;10.77;;;4.57;;
13085;SDS011;6609;49.882;8.664;2024-02-21T09:41:53;10.23;;;4.50;;
13085;SDS011;6609;49.882;8.664;2024-02-21T09:44:23;10.10;;;4.57;;
13085;SDS011;6609;49.882;8.664;2024-02-21T09:46:55;12.90;;;4.93;;
13085;SDS011;6609;49.882;8.664;2024-02-21T09:49:31;9.93;;;4.40;;
13085;SDS011;6609;49.882;8.664;2024-02-21T09:51:59;13.23;;;4.63;;
13085;SDS011;6609;49.882;8.664;2024-02-21T09:54:28;9.00;;;4.73;;
13085;SDS011;6609;49.882;8.664;2024-02-21T09:56:56;10.37;;;4.57;;
13085;SDS011;6609;49.882;8.664;2024-02-21T09:59:23;10.37;;;4.33;;
13085;SDS011;6609;49.882;8.664;2024-02-21T10:01:51;5.90;;;3.97;;
13085;SDS011;6609;49.882;8.664;2024-02-21T10:04:20;11.10;;;5.33;;
13085;SDS011;6609;49.882;8.664;2024-02-21T10:06:48;10.23;;;5.43;;
13085;SDS011;6609;49.882;8.664;2024-02-21T10:09:21;14.60;;;5.40;;
13085;SDS011;6609;49.882;8.664;2024-02-21T10:11:49;13.07;;;5.27;;
13085;SDS011;6609;49.882;8.664;2024-02-21T10:14:16;10.20;;;5.10;;
13085;SDS011;6609;49.882;8.664;2024-02-21T10:16:44;10.57;;;4.23;;
13085;SDS011;6609;49.882;8.664;2024-02-21T10:19:17;8.90;;;4.73;;
13085;SDS011;6609;49.882;8.664;2024-02-21T10:21:58;9.33;;;5.27;;
13085;SDS011;6609;49.882;8.664;2024-02-21T10:24:26;14.03;;;5.33;;
13085;SDS011;6609;49.882;8.664;2024-02-21T10:26:58;10.17;;;5.00;;
13085;SDS011;6609;49.882;8.664;2024-02-21T10:29:25;15.30;;;5.60;;
13085;SDS011;6609;49.882;8.664;2024-02-21T10:32:02;8.47;;;4.27;;
13085;SDS011;6609;49.882;8.664;2024-02-21T10:34:33;10.20;;;5.00;;
13085;SDS011;6609;49.882;8.664;2024-02-21T10:37:02;9.30;;;4.00;;
13085;SDS011;6609;49.882;8.664;2024-02-21T10:39:29;10.40;;;4.50;;
13085;SDS011;6609;49.882;8.664;2024-02-21T10:41:58;8.50;;;3.87;;
13085;SDS011;6609;49.882;8.664;2024-02-21T10:44:26;11.80;;;4.70;;
13085;SDS011;6609;49.882;8.664;2024-02-21T10:46:55;7.43;;;3.67;;
13085;SDS011;6609;49.882;8.664;2024-02-21T10:49:23;10.63;;;4.40;;
13085;SDS011;6609;49.882;8.664;2024-02-21T10:51:53;7.80;;;3.93;;
13085;SDS011;6609;49.882;8.664;2024-02-21T10:54:33;15.40;;;5.07;;
13085;SDS011;6609;49.882;8.664;2024-02-21T10:57:06;8.17;;;4.50;;
13085;SDS011;6609;49.882;8.664;2024-02-21T10:59:34;13.60;;;4.63;;
13085;SDS011;6609;49.882;8.664;2024-02-21T11:02:04;12.23;;;4.43;;
13085;SDS011;6609;49.882;8.664;2024-02-21T11:04:30;12.17;;;5.00;;
13085;SDS011;6609;49.882;8.664;2024-02-21T11:07:01;12.50;;;4.70;;
13085;SDS011;6609;49.882;8.664;2024-02-21T11:09:30;7.37;;;3.47;;
13085;SDS011;6609;49.882;8.664;2024-02-21T11:11:58;12.03;;;4.77;;
13085;SDS011;6609;49.882;8.664;2024-02-21T11:14:26;10.43;;;4.13;;
13085;SDS011;6609;49.882;8.664;2024-02-21T11:16:53;12.30;;;4.40;;
13085;SDS011;6609;49.882;8.664;2024-02-21T11:19:22;9.47;;;4.67;;
13085;SDS011;6609;49.882;8.664;2024-02-21T11:21:51;10.13;;;4.50;;
13085;SDS011;6609;49.882;8.664;2024-02-21T11:24:28;12.27;;;4.17;;
13085;SDS011;6609;49.882;8.664;2024-02-21T11:27:07;11.00;;;4.60;;
13085;SDS011;6609;49.882;8.664;2024-02-21T11:29:39;11.33;;;4.70;;
13085;SDS011;6609;49.882;8.664;2024-02-21T11:32:09;9.20;;;5.00;;
13085;SDS011;6609;49.882;8.664;2024-02-21T11:34:36;7.03;;;4.13;;
13085;SDS011;6609;49.882;8.664;2024-02-21T11:37:12;10.47;;;4.00;;
13085;SDS011;6609;49.882;8.664;2024-02-21T11:39:43;15.17;;;4.40;;
13085;SDS011;6609;49.882;8.664;2024-02-21T11:42:10;11.87;;;4.53;;
13085;SDS011;6609;49.882;8.664;2024-02-21T11:44:38;12.80;;;4.53;;
13085;SDS011;6609;49.882;8.664;2024-02-21T11:47:08;9.10;;;4.17;;
13085;SDS011;6609;49.882;8.664;2024-02-21T11:49:36;11.30;;;4.10;;
13085;SDS011;6609;49.882;8.664;2024-02-21T11:52:04;8.70;;;4.10;;
13085;SDS011;6609;49.882;8.664;2024-02-21T11:54:32;7.43;;;3.83;;
13085;SDS011;6609;49.882;8.664;2024-02-21T11:57:00;8.40;;;3.80;;
13085;SDS011;6609;49.882;8.664;2024-02-21T11:59:29;8.40;;;3.40;;
13085;SDS011;6609;49.882;8.664;2024-02-21T12:01:56;7.40;;;3.73;;
13085;SDS011;6609;49.882;8.664;2024-02-21T12:04:24;12.63;;;4.50;;
13085;SDS011;6609;49.882;8.664;2024-02-21T12:06:52;14.47;;;4.50;;
13085;SDS011;6609;49.882;8.664;2024-02-21T12:09:19;7.97;;;4.40;;
13085;SDS011;6609;49.882;8.664;2024-02-21T12:11:56;11.13;;;4.20;;
13085;SDS011;6609;49.882;8.664;2024-02-21T12:14:25;8.00;;;4.10;;
13085;SDS011;6609;49.882;8.664;2024-02-21T12:16:53;12.00;;;4.70;;
13085;SDS011;6609;49.882;8.664;2024-02-21T12:19:20;7.20;;;3.83;;
13085;SDS011;6609;49.882;8.664;2024-02-21T12:21:48;8.67;;;4.43;;
13085;SDS011;6609;49.882;8.664;2024-02-21T12:24:17;10.37;;;4.43;;
13085;SDS011;6609;49.882;8.664;2024-02-21T12:26:45;11.10;;;4.10;;
13085;SDS011;6609;49.882;8.664;2024-02-21T12:29:12;8.20;;;3.57;;
13085;SDS011;6609;49.882;8.664;2024-02-21T12:31:40;12.17;;;4.60;;
13085;SDS011;6609;49.882;8.664;2024-02-21T12:34:07;11.97;;;4.07;;
13085;SDS011;6609;49.882;8.664;2024-02-21T12:36:35;7.40;;;3.87;;
13085;SDS011;6609;49.882;8.664;2024-02-21T12:39:02;11.50;;;4.57;;
13085;SDS011;6609;49.882;8.664;2024-02-21T12:41:29;12.87;;;3.33;;
13085;SDS011;6609;49.882;8.664;2024-02-21T12:43:58;13.47;;;7.47;;
13085;SDS011;6609;49.882;8.664;2024-02-21T12:46:25;13.70;;;3.97;;
13085;SDS011;6609;49.882;8.664;2024-02-21T12:48:53;8.33;;;3.53;;
13085;SDS011;6609;49.882;8.664;2024-02-21T12:51:20;7.63;;;3.30;;
13085;SDS011;6609;49.882;8.664;2024-02-21T12:53:47;10.97;;;6.67;;
13085;SDS011;6609;49.882;8.664;2024-02-21T12:56:14;6.63;;;3.20;;
13085;SDS011;6609;49.882;8.664;2024-02-21T12:58:42;7.27;;;3.20;;
13085;SDS011;6609;49.882;8.664;2024-02-21T13:01:09;14.50;;;3.57;;
13085;SDS011;6609;49.882;8.664;2024-02-21T13:03:37;9.77;;;3.67;;
13085;SDS011;6609;49.882;8.664;2024-02-21T13:06:05;7.40;;;3.27;;
13085;SDS011;6609;49.882;8.664;2024-02-21T13:08:33;11.23;;;3.10;;
13085;SDS011;6609;49.882;8.664;2024-02-21T13:11:00;7.07;;;2.77;;
13085;SDS011;6609;49.882;8.664;2024-02-21T13:13:28;10.17;;;3.20;;
13085;SDS011;6609;49.882;8.664;2024-02-21T13:15:55;10.17;;;3.80;;
13085;SDS011;6609;49.882;8.664;2024-02-21T13:18:22;6.53;;;2.80;;
13085;SDS011;6609;49.882;8.664;2024-02-21T13:20:49;9.50;;;4.60;;
13085;SDS011;6609;49.882;8.664;2024-02-21T13:23:17;5.90;;;3.13;;
13085;SDS011;6609;49.882;8.664;2024-02-21T13:25:46;7.20;;;2.97;;
13085;SDS011;6609;49.882;8.664;2024-02-21T13:28:14;6.60;;;3.27;;
13085;SDS011;6609;49.882;8.664;2024-02-21T13:30:41;8.70;;;3.10;;
13085;SDS011;6609;49.882;8.664;2024-02-21T13:33:08;11.50;;;4.20;;
13085;SDS011;6609;49.882;8.664;2024-02-21T13:35:35;7.33;;;3.43;;
13085;SDS011;6609;49.882;8.664;2024-02-21T13:38:03;6.50;;;3.43;;
13085;SDS011;6609;49.882;8.664;2024-02-21T13:40:31;8.27;;;4.23;;
13085;SDS011;6609;49.882;8.664;2024-02-21T13:42:58;12.47;;;5.10;;
13085;SDS011;6609;49.882;8.664;2024-02-21T13:45:26;10.90;;;4.10;;
13085;SDS011;6609;49.882;8.664;2024-02-21T13:47:53;8.67;;;2.80;;
13085;SDS011;6609;49.882;8.664;2024-02-21T13:50:21;12.43;;;3.67;;
13085;SDS011;6609;49.882;8.664;2024-02-21T13:52:48;9.17;;;3.83;;
13085;SDS011;6609;49.882;8.664;2024-02-21T13:55:15;8.93;;;4.77;;
13085;SDS011;6609;49.882;8.664;2024-02-21T13:57:44;8.57;;;3.50;;
13085;SDS011;6609;49.882;8.664;2024-02-21T14:00:11;7.90;;;3.67;;
13085;SDS011;6609;49.882;8.664;2024-02-21T14:02:39;7.57;;;3.47;;
13085;SDS011;6609;49.882;8.664;2024-02-21T14:05:05;6.13;;;3.00;;
13085;SDS011;6609;49.882;8.664;2024-02-21T14:07:33;5.60;;;3.40;;
13085;SDS011;6609;49.882;8.664;2024-02-21T14:10:00;6.33;;;3.77;;
13085;SDS011;6609;49.882;8.664;2024-02-21T14:12:28;6.67;;;3.17;;
13085;SDS011;6609;49.882;8.664;2024-02-21T14:14:58;7.20;;;3.83;;
13085;SDS011;6609;49.882;8.664;2024-02-21T14:17:25;10.70;;;3.43;;
13085;SDS011;6609;49.882;8.664;2024-02-21T14:19:52;7.80;;;2.67;;
13085;SDS011;6609;49.882;8.664;2024-02-21T14:22:22;7.40;;;3.17;;
13085;SDS011;6609;49.882;8.664;2024-02-21T14:24:49;10.07;;;2.93;;
13085;SDS011;6609;49.882;8.664;2024-02-21T14:27:16;8.40;;;3.00;;
13085;SDS011;6609;49.882;8.664;2024-02-21T14:29:43;9.20;;;3.70;;
13085;SDS011;6609;49.882;8.664;2024-02-21T14:32:11;6.73;;;3.70;;
13085;SDS011;6609;49.882;8.664;2024-02-21T14:34:39;7.60;;;3.40;;
13085;SDS011;6609;49.882;8.664;2024-02-21T14:37:06;7.47;;;3.23;;
13085;SDS011;6609;49.882;8.664;2024-02-21T14:39:33;8.57;;;3.53;;
13085;SDS011;6609;49.882;8.664;2024-02-21T14:42:00;5.70;;;2.97;;
13085;SDS011;6609;49.882;8.664;2024-02-21T14:44:27;7.37;;;2.77;;
13085;SDS011;6609;49.882;8.664;2024-02-21T14:46:54;5.97;;;3.13;;
13085;SDS011;6609;49.882;8.664;2024-02-21T14:49:22;7.23;;;2.63;;
13085;SDS011;6609;49.882;8.664;2024-02-21T14:51:50;8.37;;;3.13;;
13085;SDS011;6609;49.882;8.664;2024-02-21T14:54:17;7.60;;;3.37;;